Time;durP1;ratioP1;P1;durP2;ratioP2;P2;SDS_P1;SDS_P2;PMS_P1;PMS_P2;Temp;Humidity;BMP_temperature;BMP_pressure;BME280_temperature;BME280_humidity;BME280_pressure;Samples;Min_cycle;Max_cycle;Signal;HPM_P1;HPM_P2
2024/04/06 00:00:19;;;;;;;3.40;2.57;;;12.50;99.90;;;;;;5055329;28;20311;-67
2024/04/06 00:02:45;;;;;;;4.37;2.80;;;12.50;99.90;;;;;;5056512;28;20236;-67
2024/04/06 00:05:12;;;;;;;4.47;2.50;;;12.40;99.90;;;;;;5055720;28;20206;-68
2024/04/06 00:07:38;;;;;;;4.93;2.73;;;12.40;99.90;;;;;;5056065;28;20215;-67
2024/04/06 00:10:06;;;;;;;2.90;2.60;;;12.40;99.90;;;;;;5055268;28;20778;-67
2024/04/06 00:12:34;;;;;;;3.73;2.47;;;12.30;99.90;;;;;;5055764;28;20232;-67
2024/04/06 00:15:01;;;;;;;4.90;2.70;;;12.30;99.90;;;;;;5054931;28;20299;-67
2024/04/06 00:17:26;;;;;;;3.40;2.50;;;12.30;99.90;;;;;;5055372;28;20299;-67
2024/04/06 00:19:53;;;;;;;2.43;2.23;;;12.30;99.90;;;;;;5056486;28;20319;-67
2024/04/06 00:22:19;;;;;;;5.10;2.23;;;12.30;99.90;;;;;;5055269;28;20193;-66
2024/04/06 00:24:46;;;;;;;3.20;2.40;;;12.30;99.90;;;;;;5055707;28;20214;-66
2024/04/06 00:27:12;;;;;;;5.00;3.10;;;12.30;99.90;;;;;;5055006;28;20212;-66
2024/04/06 00:29:40;;;;;;;4.00;2.93;;;12.30;99.90;;;;;;5055166;28;20224;-66
2024/04/06 00:32:06;;;;;;;3.00;2.67;;;12.30;99.90;;;;;;5056116;28;20215;-67
2024/04/06 00:34:33;;;;;;;4.30;3.80;;;12.30;99.90;;;;;;5054581;28;20224;-67
2024/04/06 00:37:01;;;;;;;4.10;3.30;;;12.30;99.90;;;;;;5055020;28;20235;-67
2024/04/06 00:39:28;;;;;;;5.47;2.93;;;12.30;99.90;;;;;;5054853;28;20204;-67
2024/04/06 00:41:56;;;;;;;5.47;3.93;;;12.40;99.90;;;;;;5054627;28;20748;-67
2024/04/06 00:44:24;;;;;;;5.60;3.33;;;12.40;99.90;;;;;;5055901;28;20236;-66
2024/04/06 00:46:52;;;;;;;4.23;3.50;;;12.30;99.90;;;;;;5054316;28;20228;-66
2024/04/06 00:49:19;;;;;;;3.10;2.80;;;12.30;99.90;;;;;;5054414;28;20212;-66
2024/04/06 00:51:45;;;;;;;3.80;3.50;;;12.30;99.90;;;;;;5054656;28;20262;-66
2024/04/06 00:54:12;;;;;;;5.03;3.00;;;12.30;99.90;;;;;;5054630;28;20636;-67
2024/04/06 00:56:38;;;;;;;3.60;3.13;;;12.30;99.90;;;;;;5055009;28;20311;-68
2024/04/06 00:59:05;;;;;;;3.10;2.80;;;12.30;99.90;;;;;;5057036;28;20705;-66
2024/04/06 01:01:31;;;;;;;3.67;3.10;;;12.30;99.90;;;;;;5054703;28;20263;-66
2024/04/06 01:04:00;;;;;;;4.53;3.10;;;12.30;99.90;;;;;;5055417;28;20228;-66
2024/04/06 01:06:26;;;;;;;5.43;3.40;;;12.20;99.90;;;;;;5055442;28;20691;-66
2024/04/06 01:08:53;;;;;;;4.07;3.33;;;12.10;99.90;;;;;;5056287;28;20299;-67
2024/04/06 01:11:19;;;;;;;6.50;3.10;;;12.10;99.90;;;;;;5054519;28;20713;-66
2024/04/06 01:13:46;;;;;;;3.73;2.93;;;12.00;99.90;;;;;;5054457;28;20314;-67
2024/04/06 01:16:12;;;;;;;4.60;3.60;;;12.00;99.90;;;;;;5054201;28;20291;-66
2024/04/06 01:18:39;;;;;;;3.87;3.07;;;12.00;99.90;;;;;;5054286;28;20295;-66
2024/04/06 01:21:06;;;;;;;3.80;3.20;;;11.80;99.90;;;;;;5054724;28;20760;-67
2024/04/06 01:23:35;;;;;;;6.60;3.67;;;11.70;99.90;;;;;;5054132;28;20362;-66
2024/04/06 01:26:03;;;;;;;5.67;3.20;;;11.60;99.90;;;;;;5053818;28;20628;-66
2024/04/06 01:28:31;;;;;;;3.77;3.10;;;11.60;99.90;;;;;;5054781;28;20207;-66
2024/04/06 01:30:56;;;;;;;5.30;3.30;;;11.50;99.90;;;;;;5056527;28;20251;-65
2024/04/06 01:33:23;;;;;;;4.57;3.43;;;11.50;99.90;;;;;;5054861;28;20283;-66
2024/04/06 01:35:49;;;;;;;4.90;3.43;;;11.40;99.90;;;;;;5055515;28;20603;-66
2024/04/06 01:38:16;;;;;;;4.10;2.90;;;11.40;99.90;;;;;;5054512;28;20246;-66
2024/04/06 01:40:42;;;;;;;3.20;2.90;;;11.40;99.90;;;;;;5055310;28;20367;-66
2024/04/06 01:43:10;;;;;;;4.00;2.97;;;11.30;99.90;;;;;;5053806;28;20740;-67
2024/04/06 01:45:36;;;;;;;5.57;2.63;;;11.20;99.90;;;;;;5053708;28;20232;-67
2024/04/06 01:48:03;;;;;;;3.47;2.53;;;11.20;99.90;;;;;;5053706;28;20239;-66
2024/04/06 01:50:29;;;;;;;2.57;2.37;;;11.10;99.90;;;;;;5053580;28;20318;-67
2024/04/06 01:52:56;;;;;;;3.07;2.53;;;11.10;99.90;;;;;;5054253;28;20311;-67
2024/04/06 01:55:22;;;;;;;2.50;2.30;;;11.00;99.90;;;;;;5053461;28;20699;-67
2024/04/06 01:57:48;;;;;;;4.97;2.63;;;11.00;99.90;;;;;;5053276;28;20204;-67
2024/04/06 02:00:16;;;;;;;3.10;2.40;;;10.90;99.90;;;;;;5053340;28;20232;-67
2024/04/06 02:02:43;;;;;;;2.63;2.30;;;10.90;99.90;;;;;;5053999;28;20216;-67
2024/04/06 02:05:09;;;;;;;3.03;2.33;;;10.90;99.90;;;;;;5053417;28;20638;-67
2024/04/06 02:07:35;;;;;;;3.30;2.10;;;10.80;99.90;;;;;;5054545;28;20295;-67
2024/04/06 02:10:01;;;;;;;2.63;2.20;;;10.70;99.90;;;;;;5054373;28;20284;-67
2024/04/06 02:12:28;;;;;;;4.17;2.53;;;10.70;99.90;;;;;;5053265;28;20300;-67
2024/04/06 02:14:54;;;;;;;3.50;2.37;;;10.70;99.90;;;;;;5052980;28;20776;-67
2024/04/06 02:17:22;;;;;;;3.63;2.40;;;10.60;99.90;;;;;;5053634;28;20295;-67
2024/04/06 02:19:48;;;;;;;2.77;2.50;;;10.60;99.90;;;;;;5053292;28;20244;-67
2024/04/06 02:22:15;;;;;;;4.67;2.30;;;10.50;99.90;;;;;;5053468;28;20189;-67
2024/04/06 02:24:41;;;;;;;3.60;2.63;;;10.50;99.90;;;;;;5053226;28;20299;-67
2024/04/06 02:27:07;;;;;;;3.23;2.40;;;10.40;99.90;;;;;;5053405;28;20291;-66
2024/04/06 02:29:33;;;;;;;3.13;2.70;;;10.40;99.90;;;;;;5052983;28;20657;-66
2024/04/06 02:32:01;;;;;;;5.00;3.57;;;10.40;99.90;;;;;;5053362;28;20212;-66
2024/04/06 02:34:28;;;;;;;5.33;3.27;;;10.40;99.90;;;;;;5052870;28;20649;-66
2024/04/06 02:36:55;;;;;;;3.77;3.43;;;10.50;99.90;;;;;;5053121;28;20214;-66
2024/04/06 02:39:21;;;;;;;4.17;3.10;;;10.50;99.90;;;;;;5055964;28;20610;-67
2024/04/06 02:41:47;;;;;;;6.67;3.57;;;10.40;99.90;;;;;;5057902;28;20231;-67
2024/04/06 02:44:13;;;;;;;8.37;3.33;;;10.40;99.90;;;;;;5057001;28;20291;-66
2024/04/06 02:46:40;;;;;;;4.90;3.20;;;10.40;99.90;;;;;;5056808;28;20654;-66
2024/04/06 02:49:06;;;;;;;5.13;3.37;;;10.40;99.90;;;;;;5057636;28;20210;-66
2024/04/06 02:51:34;;;;;;;3.40;3.10;;;10.40;99.90;;;;;;5057777;28;20310;-67
2024/04/06 02:54:00;;;;;;;4.93;3.13;;;10.30;99.90;;;;;;5056851;28;20653;-67
2024/04/06 02:56:27;;;;;;;3.40;3.10;;;10.30;99.90;;;;;;5056631;28;20210;-67
2024/04/06 02:58:53;;;;;;;4.80;3.37;;;10.30;99.90;;;;;;5056493;28;20632;-67
2024/04/06 03:01:20;;;;;;;4.33;3.13;;;10.30;99.90;;;;;;5056831;28;20248;-67
2024/04/06 03:03:46;;;;;;;5.90;3.20;;;10.20;99.90;;;;;;5057794;28;20204;-67
2024/04/06 03:06:13;;;;;;;3.77;3.23;;;10.20;99.90;;;;;;5057503;28;20634;-67
2024/04/06 03:08:40;;;;;;;3.23;2.93;;;10.20;99.90;;;;;;5056941;28;20234;-67
2024/04/06 03:11:07;;;;;;;4.17;2.83;;;10.10;99.90;;;;;;5056554;28;20263;-67
2024/04/06 03:13:33;;;;;;;4.37;3.33;;;10.20;99.90;;;;;;5056074;28;20255;-67
2024/04/06 03:16:00;;;;;;;3.23;2.93;;;10.20;99.90;;;;;;5056473;28;20203;-67
2024/04/06 03:18:26;;;;;;;3.70;3.30;;;10.10;99.90;;;;;;5056537;28;20215;-66
2024/04/06 03:20:53;;;;;;;4.00;3.20;;;10.20;99.90;;;;;;5057614;28;20667;-67
2024/04/06 03:23:19;;;;;;;4.20;3.07;;;10.20;99.90;;;;;;5056488;28;20208;-67
2024/04/06 03:25:47;;;;;;;5.80;3.53;;;10.20;99.90;;;;;;5056386;28;20204;-67
2024/04/06 03:28:13;;;;;;;4.80;3.70;;;10.20;99.90;;;;;;5056869;28;20674;-66
2024/04/06 03:30:39;;;;;;;3.53;3.23;;;10.20;99.90;;;;;;5056778;28;20286;-67
2024/04/06 03:33:06;;;;;;;4.33;3.77;;;10.20;99.90;;;;;;5057369;28;20643;-67
2024/04/06 03:35:33;;;;;;;6.77;3.93;;;10.20;99.90;;;;;;5056465;28;20295;-67
2024/04/06 03:37:59;;;;;;;4.50;3.37;;;10.10;99.90;;;;;;5057746;28;20216;-68
2024/04/06 03:40:25;;;;;;;3.70;3.40;;;10.10;99.90;;;;;;5055557;28;20603;-66
2024/04/06 03:42:57;;;;;;;4.20;3.70;;;10.00;99.90;;;;;;5055935;28;20294;-65
2024/04/06 03:45:23;;;;;;;5.50;3.87;;;9.90;99.90;;;;;;5055642;28;20251;-65
2024/04/06 03:47:50;;;;;;;4.93;3.67;;;9.90;99.90;;;;;;5055868;28;20240;-66
2024/04/06 03:50:17;;;;;;;4.47;3.80;;;9.80;99.90;;;;;;5055324;28;20228;-66
2024/04/06 03:52:45;;;;;;;6.30;4.00;;;9.80;99.90;;;;;;5056666;28;20202;-66
2024/04/06 03:55:11;;;;;;;10.07;4.50;;;9.70;99.90;;;;;;5056064;28;20258;-67
2024/04/06 03:57:38;;;;;;;6.93;3.87;;;9.70;99.90;;;;;;5055922;28;20661;-67
2024/04/06 04:00:08;;;;;;;7.70;4.27;;;9.60;99.90;;;;;;5056295;28;20270;-67
2024/04/06 04:02:37;;;;;;;4.33;3.90;;;9.70;99.90;;;;;;5055353;28;20572;-67
2024/04/06 04:05:03;;;;;;;5.73;3.67;;;9.80;99.90;;;;;;5055296;28;20208;-66
2024/04/06 04:07:30;;;;;;;3.90;3.60;;;9.70;99.90;;;;;;5056223;28;20287;-67
2024/04/06 04:09:57;;;;;;;4.13;3.07;;;9.60;99.90;;;;;;5055398;28;20278;-66
2024/04/06 04:12:24;;;;;;;6.23;3.30;;;9.50;99.90;;;;;;5055381;28;20200;-66
2024/04/06 04:14:51;;;;;;;3.00;2.77;;;9.40;99.90;;;;;;5055832;28;20234;-66
2024/04/06 04:17:19;;;;;;;4.60;2.73;;;9.40;99.90;;;;;;5055127;28;20649;-66
2024/04/06 04:19:45;;;;;;;6.27;3.07;;;9.30;99.90;;;;;;5055359;28;20239;-67
2024/04/06 04:22:11;;;;;;;3.43;2.53;;;9.30;99.90;;;;;;5055905;28;20224;-66
2024/04/06 04:24:38;;;;;;;3.77;3.47;;;9.30;99.90;;;;;;5055671;28;20224;-66
2024/04/06 04:27:05;;;;;;;4.97;3.47;;;9.30;99.90;;;;;;5055370;28;20216;-66
2024/04/06 04:29:32;;;;;;;4.47;3.10;;;9.40;99.90;;;;;;5054889;28;20626;-67
2024/04/06 04:31:58;;;;;;;4.73;3.30;;;9.30;99.90;;;;;;5055721;28;20673;-66
2024/04/06 04:34:26;;;;;;;4.07;3.60;;;9.30;99.90;;;;;;5054686;28;20232;-66
2024/04/06 04:36:52;;;;;;;4.57;3.37;;;9.30;99.90;;;;;;5054913;28;20208;-66
2024/04/06 04:39:19;;;;;;;5.73;5.20;;;9.20;99.90;;;;;;5055395;28;20214;-67
2024/04/06 04:41:44;;;;;;;5.37;4.87;;;9.10;99.90;;;;;;5054488;28;20244;-67
2024/04/06 04:44:11;;;;;;;6.73;5.00;;;9.20;99.90;;;;;;5054779;28;20228;-66
2024/04/06 04:46:37;;;;;;;6.43;4.87;;;9.10;99.90;;;;;;5054967;28;20218;-66
2024/04/06 04:49:04;;;;;;;4.83;4.13;;;9.10;99.90;;;;;;5054879;28;20208;-67
2024/04/06 04:51:31;;;;;;;5.00;3.97;;;9.00;99.90;;;;;;5054796;28;20319;-66
2024/04/06 04:53:58;;;;;;;6.67;5.20;;;8.90;99.90;;;;;;5054717;28;20290;-66
2024/04/06 04:56:24;;;;;;;6.00;5.40;;;9.00;99.90;;;;;;5054806;28;20297;-66
2024/04/06 04:58:51;;;;;;;7.20;4.90;;;8.90;99.90;;;;;;5055175;28;20291;-67
2024/04/06 05:01:17;;;;;;;7.77;4.80;;;8.90;99.90;;;;;;5054511;28;20650;-66
2024/04/06 05:03:44;;;;;;;5.80;5.03;;;8.80;99.90;;;;;;5054358;28;20236;-66
2024/04/06 05:06:10;;;;;;;5.47;4.57;;;8.80;99.90;;;;;;5055347;28;20299;-66
2024/04/06 05:08:38;;;;;;;6.97;3.80;;;8.80;99.90;;;;;;5054008;28;20204;-66
2024/04/06 05:11:05;;;;;;;5.37;4.07;;;8.80;99.90;;;;;;5054095;28;20250;-66
2024/04/06 05:13:32;;;;;;;5.43;3.13;;;8.80;99.90;;;;;;5054504;28;20216;-66
2024/04/06 05:15:58;;;;;;;4.07;2.93;;;8.80;99.90;;;;;;5054357;28;20296;-66
2024/04/06 05:18:25;;;;;;;3.47;2.80;;;8.80;99.90;;;;;;5054383;28;20307;-66
2024/04/06 05:20:51;;;;;;;5.17;2.83;;;8.90;99.90;;;;;;5053927;28;20239;-66
2024/04/06 05:23:18;;;;;;;3.50;2.50;;;8.80;99.90;;;;;;5053885;28;20208;-66
2024/04/06 05:25:47;;;;;;;5.80;3.00;;;8.90;99.90;;;;;;5053768;28;20208;-66
2024/04/06 05:28:16;;;;;;;5.10;2.40;;;8.90;99.90;;;;;;5053934;28;20568;-66
2024/04/06 05:30:43;;;;;;;3.73;2.70;;;9.00;99.90;;;;;;5053666;28;20316;-66
2024/04/06 05:33:10;;;;;;;2.77;2.57;;;9.00;99.90;;;;;;5053582;28;20236;-66
2024/04/06 05:35:36;;;;;;;2.93;2.40;;;9.00;99.90;;;;;;5053739;28;20330;-66
2024/04/06 05:38:04;;;;;;;5.57;2.90;;;9.00;99.90;;;;;;5053792;28;20203;-66
2024/04/06 05:40:30;;;;;;;4.03;3.10;;;9.00;99.90;;;;;;5053625;28;20224;-67
2024/04/06 05:42:58;;;;;;;5.27;3.13;;;9.00;99.90;;;;;;5053856;28;20212;-67
2024/04/06 05:45:24;;;;;;;3.53;3.03;;;9.00;99.90;;;;;;5053722;28;20695;-67
2024/04/06 05:47:51;;;;;;;6.50;3.30;;;9.00;99.90;;;;;;5053877;28;20212;-67
2024/04/06 05:50:17;;;;;;;4.07;3.57;;;9.10;99.90;;;;;;5053661;28;20238;-67
2024/04/06 05:52:44;;;;;;;5.67;3.87;;;9.10;99.90;;;;;;5053557;28;20582;-67
2024/04/06 05:55:10;;;;;;;3.80;3.47;;;9.20;99.90;;;;;;5053174;28;20235;-67
2024/04/06 05:57:36;;;;;;;3.83;3.53;;;9.30;99.90;;;;;;5053098;28;20294;-67
2024/04/06 06:00:05;;;;;;;4.33;3.67;;;9.40;99.90;;;;;;5053357;28;20279;-67
2024/04/06 06:02:36;;;;;;;4.00;3.60;;;9.50;99.90;;;;;;5053611;28;20202;-66
2024/04/06 06:05:05;;;;;;;3.90;3.20;;;9.60;99.90;;;;;;5053458;28;20208;-66
2024/04/06 06:07:32;;;;;;;7.67;3.70;;;9.70;99.90;;;;;;5053768;28;20207;-67
2024/04/06 06:09:58;;;;;;;3.97;3.10;;;9.80;99.90;;;;;;5053649;28;20255;-66
2024/04/06 06:12:24;;;;;;;4.30;3.33;;;9.90;99.90;;;;;;5054501;28;20242;-66
2024/04/06 06:14:50;;;;;;;3.50;3.07;;;10.00;99.90;;;;;;5057403;28;20248;-67
2024/04/06 06:17:19;;;;;;;3.53;3.10;;;10.10;99.90;;;;;;5058214;28;20215;-67
2024/04/06 06:19:45;;;;;;;3.90;2.80;;;10.30;99.90;;;;;;5057452;28;20333;-67
2024/04/06 06:22:12;;;;;;;4.20;2.87;;;10.40;99.90;;;;;;5058419;28;20200;-67
2024/04/06 06:24:38;;;;;;;2.77;2.57;;;10.50;99.90;;;;;;5057767;28;20291;-67
2024/04/06 06:27:06;;;;;;;4.07;2.43;;;10.70;99.90;;;;;;5057489;28;20204;-67
2024/04/06 06:29:33;;;;;;;3.10;2.47;;;10.90;99.90;;;;;;5057349;28;20589;-66
2024/04/06 06:31:59;;;;;;;5.17;2.73;;;11.00;99.90;;;;;;5057563;28;20269;-67
2024/04/06 06:34:27;;;;;;;4.20;2.53;;;11.10;99.90;;;;;;5059190;28;20228;-66
2024/04/06 06:36:54;;;;;;;3.80;2.30;;;11.30;99.90;;;;;;5058885;28;20216;-66
2024/04/06 06:39:20;;;;;;;2.20;2.00;;;11.50;99.90;;;;;;5057813;28;20222;-67
2024/04/06 06:41:47;;;;;;;2.50;2.30;;;11.60;99.90;;;;;;5059483;28;20295;-66
2024/04/06 06:44:13;;;;;;;2.30;2.10;;;11.70;99.90;;;;;;5057900;28;20208;-67
2024/04/06 06:46:40;;;;;;;4.13;1.90;;;11.90;99.90;;;;;;5057284;28;20626;-67
2024/04/06 06:49:06;;;;;;;2.50;2.30;;;12.10;99.90;;;;;;5058508;28;20212;-67
2024/04/06 06:51:35;;;;;;;4.03;2.20;;;12.20;99.90;;;;;;5057168;28;20224;-69
2024/04/06 06:54:01;;;;;;;4.73;1.90;;;12.40;99.90;;;;;;5057300;28;20235;-69
2024/04/06 06:56:29;;;;;;;2.30;2.10;;;12.60;99.90;;;;;;5057784;28;20208;-69
2024/04/06 06:58:54;;;;;;;3.37;1.97;;;12.80;99.90;;;;;;5057208;28;20745;-69
2024/04/06 07:01:22;;;;;;;3.97;2.00;;;12.90;99.90;;;;;;5057486;28;20254;-69
2024/04/06 07:03:48;;;;;;;2.63;2.00;;;13.10;99.90;;;;;;5057135;28;20219;-69
2024/04/06 07:06:15;;;;;;;5.80;3.23;;;13.30;99.90;;;;;;5057140;28;20204;-69
2024/04/06 07:08:43;;;;;;;4.53;4.10;;;13.50;99.90;;;;;;5057460;28;20212;-70
2024/04/06 07:11:14;;;;;;;6.80;4.63;;;13.60;99.90;;;;;;5057958;28;20697;-68
2024/04/06 07:13:40;;;;;;;7.97;5.43;;;13.70;99.90;;;;;;5056878;28;20188;-69
2024/04/06 07:16:08;;;;;;;10.00;5.30;;;13.90;99.90;;;;;;5056522;28;20204;-69
2024/04/06 07:18:37;;;;;;;7.28;5.30;;;14.00;99.90;;;;;;5056821;28;20200;-70
2024/04/06 07:21:05;;;;;;;9.02;5.28;;;14.20;99.90;;;;;;5057378;28;20240;-72
2024/04/06 07:23:31;;;;;;;6.00;4.43;;;14.20;99.90;;;;;;5057275;28;20298;-70
2024/04/06 07:25:59;;;;;;;6.28;4.50;;;14.30;99.90;;;;;;5056746;28;20283;-70
2024/04/06 07:28:25;;;;;;;6.40;4.88;;;14.50;99.90;;;;;;5057134;28;20208;-71
2024/04/06 07:30:52;;;;;;;6.55;3.80;;;14.60;99.90;;;;;;5057141;28;20232;-70
2024/04/06 07:33:18;;;;;;;4.28;3.85;;;14.80;99.90;;;;;;5056143;28;20208;-71
2024/04/06 07:35:46;;;;;;;5.15;4.55;;;14.90;99.90;;;;;;5056389;28;20231;-68
2024/04/06 07:38:12;;;;;;;5.40;4.03;;;15.20;99.90;;;;;;5057196;28;20218;-69
2024/04/06 07:40:38;;;;;;;5.30;3.55;;;15.40;99.90;;;;;;5055834;28;20314;-69
2024/04/06 07:43:06;;;;;;;7.50;4.15;;;15.60;99.90;;;;;;5055859;28;20204;-68
2024/04/06 07:45:33;;;;;;;4.03;3.60;;;15.70;99.90;;;;;;5055941;28;20211;-68
2024/04/06 07:47:59;;;;;;;4.55;3.40;;;15.90;99.90;;;;;;5056090;28;20303;-68
2024/04/06 07:50:25;;;;;;;6.38;3.67;;;16.10;99.90;;;;;;5055806;28;20311;-68
2024/04/06 07:52:51;;;;;;;4.78;3.72;;;16.30;99.90;;;;;;5055491;28;20207;-68
2024/04/06 07:55:18;;;;;;;13.95;5.60;;;16.60;99.90;;;;;;5055694;28;20315;-69
2024/04/06 07:57:44;;;;;;;9.82;4.65;;;16.90;99.90;;;;;;5055642;28;20299;-69
2024/04/06 08:00:14;;;;;;;5.13;3.45;;;17.10;99.90;;;;;;5055489;28;20300;-69
2024/04/06 08:02:41;;;;;;;9.50;2.90;;;17.40;99.90;;;;;;5055692;28;20295;-69
2024/04/06 08:05:08;;;;;;;4.13;2.83;;;17.60;99.90;;;;;;5055425;28;20201;-69
2024/04/06 08:07:34;;;;;;;3.15;2.42;;;17.80;99.90;;;;;;5055592;28;20298;-68
2024/04/06 08:10:13;;;;;;;3.78;2.47;;;17.90;99.90;;;;;;5055592;28;20251;-68
2024/04/06 08:12:39;;;;;;;5.03;2.33;;;18.10;99.90;;;;;;5055469;28;20689;-68
2024/04/06 08:15:08;;;;;;;3.83;2.13;;;18.20;99.90;;;;;;5055976;28;20235;-69
2024/04/06 08:17:36;;;;;;;3.08;2.03;;;18.30;99.90;;;;;;5055046;28;20251;-70
2024/04/06 08:20:04;;;;;;;3.30;1.75;;;18.40;99.90;;;;;;5054984;28;20236;-69
2024/04/06 08:22:30;;;;;;;1.88;1.52;;;18.50;99.90;;;;;;5055212;28;20262;-68
2024/04/06 08:24:57;;;;;;;2.40;1.70;;;18.60;99.90;;;;;;5054875;28;20208;-66
2024/04/06 08:27:23;;;;;;;1.80;1.52;;;18.70;99.90;;;;;;5054876;28;20208;-66
2024/04/06 08:29:49;;;;;;;1.75;1.65;;;18.80;99.90;;;;;;5054969;28;20307;-67
2024/04/06 08:32:17;;;;;;;3.05;1.83;;;19.00;99.90;;;;;;5055056;28;20276;-66
2024/04/06 08:34:46;;;;;;;1.88;1.67;;;19.00;99.90;;;;;;5054873;28;20263;-66
2024/04/06 08:37:12;;;;;;;4.78;2.10;;;19.10;99.90;;;;;;5054835;28;20582;-67
2024/04/06 08:39:39;;;;;;;2.08;1.50;;;19.30;99.90;;;;;;5054759;28;20616;-67
2024/04/06 08:42:05;;;;;;;2.53;1.27;;;19.40;99.90;;;;;;5054793;28;20203;-67
2024/04/06 08:44:42;;;;;;;3.42;1.50;;;19.40;99.90;;;;;;5054786;28;20291;-67
2024/04/06 08:47:10;;;;;;;2.72;1.80;;;19.40;99.90;;;;;;5054809;28;20191;-66
2024/04/06 08:49:38;;;;;;;7.85;1.83;;;19.40;99.90;;;;;;5054588;28;20204;-68
2024/04/06 08:52:07;;;;;;;4.00;1.52;;;19.60;99.90;;;;;;5054901;28;20210;-67
2024/04/06 08:54:34;;;;;;;1.52;1.17;;;19.60;99.90;;;;;;5054190;28;20614;-68
2024/04/06 08:57:00;;;;;;;2.80;1.60;;;19.60;99.90;;;;;;5054461;28;20299;-67
2024/04/06 08:59:27;;;;;;;2.63;1.30;;;19.70;99.90;;;;;;5054228;28;20208;-67
2024/04/06 09:01:53;;;;;;;2.88;1.40;;;19.80;99.90;;;;;;5054415;28;20208;-67
2024/04/06 09:04:19;;;;;;;1.70;1.60;;;20.10;99.90;;;;;;5054019;28;20295;-67
2024/04/06 09:06:46;;;;;;;2.72;1.52;;;20.20;99.90;;;;;;5053953;28;20308;-67
2024/04/06 09:09:15;;;;;;;2.53;1.38;;;20.20;99.90;;;;;;5054443;28;20200;-67
2024/04/06 09:11:42;;;;;;;2.05;1.70;;;20.20;99.90;;;;;;5053815;28;20660;-66
2024/04/06 09:14:11;;;;;;;1.60;1.27;;;20.20;99.90;;;;;;5054112;28;20258;-67
2024/04/06 09:16:37;;;;;;;2.05;1.60;;;20.20;99.90;;;;;;5053720;28;20243;-67
2024/04/06 09:19:04;;;;;;;3.90;1.27;;;20.30;99.90;;;;;;5054126;28;20210;-68
2024/04/06 09:21:30;;;;;;;1.75;1.65;;;20.40;99.90;;;;;;5053545;28;20804;-68
2024/04/06 09:23:58;;;;;;;2.17;1.60;;;20.60;99.90;;;;;;5054041;28;20227;-67
2024/04/06 09:26:30;;;;;;;3.22;1.40;;;20.90;99.90;;;;;;5053698;28;20226;-68
2024/04/06 09:28:58;;;;;;;3.22;1.63;;;21.30;99.90;;;;;;5053903;28;20277;-67
2024/04/06 09:31:24;;;;;;;2.28;1.33;;;21.50;99.90;;;;;;5053792;28;20236;-67
2024/04/06 09:33:53;;;;;;;1.88;1.20;;;21.60;99.90;;;;;;5054096;28;20211;-67
2024/04/06 09:36:19;;;;;;;1.98;1.20;;;21.90;99.90;;;;;;5053640;28;20231;-67
2024/04/06 09:38:48;;;;;;;1.25;1.15;;;22.20;99.90;;;;;;5053632;28;20585;-67
2024/04/06 09:41:16;;;;;;;1.88;1.08;;;22.50;99.90;;;;;;5054170;28;20311;-67
2024/04/06 09:43:45;;;;;;;1.80;1.13;;;22.70;99.90;;;;;;5053405;28;20677;-67
2024/04/06 09:46:11;;;;;;;1.52;1.30;;;22.90;99.90;;;;;;5053641;28;20232;-67
2024/04/06 09:48:39;;;;;;;1.33;1.15;;;23.10;99.90;;;;;;5052770;28;20714;-67
2024/04/06 09:51:05;;;;;;;2.80;1.08;;;23.10;99.90;;;;;;5053441;28;20243;-67
2024/04/06 09:53:34;;;;;;;3.05;1.30;;;23.40;99.90;;;;;;5054218;28;20197;-67
2024/04/06 09:56:02;;;;;;;2.33;1.25;;;23.50;99.90;;;;;;5053196;28;20234;-67
2024/04/06 09:58:32;;;;;;;0.80;0.80;;;23.50;99.90;;;;;;5053000;28;20204;-68
2024/04/06 10:01:08;;;;;;;2.75;0.90;;;23.70;99.90;;;;;;5053644;28;20677;-67
2024/04/06 10:03:36;;;;;;;1.25;1.00;;;23.80;99.90;;;;;;5053177;28;20207;-67
2024/04/06 10:06:09;;;;;;;4.45;1.42;;;24.10;99.60;;;;;;5053210;28;20254;-67
2024/04/06 10:08:46;;;;;;;1.30;1.20;;;24.40;96.40;;;;;;5053111;28;20204;-68
2024/04/06 10:11:13;;;;;;;1.20;1.00;;;24.60;96.20;;;;;;5053154;28;20232;-68
2024/04/06 10:13:40;;;;;;;1.30;1.17;;;24.90;97.20;;;;;;5053012;28;20577;-67
2024/04/06 10:16:08;;;;;;;1.27;0.90;;;25.20;90.20;;;;;;5053265;28;20232;-67
2024/04/06 10:18:35;;;;;;;2.30;0.90;;;25.30;90.20;;;;;;5053017;28;20251;-67
2024/04/06 10:21:09;;;;;;;1.02;1.02;;;25.40;85.60;;;;;;5052577;28;20667;-67
2024/04/06 10:23:39;;;;;;;1.45;0.82;;;25.90;87.10;;;;;;5053097;28;20192;-67
2024/04/06 10:26:12;;;;;;;0.80;0.80;;;26.10;86.40;;;;;;5053098;28;20203;-67
2024/04/06 10:28:39;;;;;;;1.20;1.10;;;26.30;75.50;;;;;;5052937;28;20637;-67
2024/04/06 10:31:06;;;;;;;1.38;1.10;;;26.30;76.20;;;;;;5052870;28;20729;-67
2024/04/06 10:33:33;;;;;;;3.25;1.10;;;26.30;76.60;;;;;;5052971;28;20212;-69
2024/04/06 10:35:59;;;;;;;2.50;1.20;;;26.40;76.80;;;;;;5052685;28;20232;-68
2024/04/06 10:38:26;;;;;;;2.40;1.13;;;26.50;77.30;;;;;;5052870;28;20236;-69
2024/04/06 10:40:53;;;;;;;1.65;0.88;;;26.90;78.10;;;;;;5053402;28;20315;-69
2024/04/06 10:43:20;;;;;;;1.65;1.02;;;27.00;71.50;;;;;;5063009;28;20287;-68
2024/04/06 10:45:52;;;;;;;1.65;1.00;;;26.90;62.70;;;;;;5053267;28;20255;-69
2024/04/06 10:48:20;;;;;;;2.08;1.08;;;26.80;64.70;;;;;;5053210;28;20220;-68
2024/04/06 10:50:48;;;;;;;1.30;0.88;;;27.20;68.90;;;;;;5060126;28;20311;-69
2024/04/06 10:53:16;;;;;;;0.70;0.70;;;27.60;65.50;;;;;;5053482;28;20204;-69
2024/04/06 10:55:43;;;;;;;2.25;0.80;;;27.50;1.00;;;;;;5052941;28;20232;-69
2024/04/06 10:58:11;;;;;;;2.53;1.17;;;27.50;1.00;;;;;;5056440;28;20599;-68
2024/04/06 11:00:39;;;;;;;1.63;0.93;;;27.30;1.00;;;;;;5055555;28;20747;-67
2024/04/06 11:03:08;;;;;;;0.85;0.85;;;27.30;1.00;;;;;;5056493;28;20204;-69
2024/04/06 11:05:37;;;;;;;1.20;0.90;;;27.60;1.00;;;;;;5056355;28;20700;-68
2024/04/06 11:08:05;;;;;;;1.20;1.10;;;28.10;1.00;;;;;;5056668;28;20211;-69
2024/04/06 11:10:32;;;;;;;0.90;0.90;;;28.40;1.00;;;;;;5056344;28;20274;-68
2024/04/06 11:13:00;;;;;;;1.05;0.90;;;28.40;1.00;;;;;;5056251;28;20254;-69
2024/04/06 11:15:26;;;;;;;1.10;0.90;;;28.70;1.00;;;;;;5056103;28;20429;-69
2024/04/06 11:17:54;;;;;;;1.77;0.90;;;28.40;1.00;;;;;;5056174;28;20250;-69
2024/04/06 11:20:21;;;;;;;1.15;0.82;;;28.40;1.00;;;;;;5055962;28;20240;-68
2024/04/06 11:22:50;;;;;;;2.15;1.10;;;28.40;1.00;;;;;;5056036;28;20212;-68
2024/04/06 11:25:17;;;;;;;0.82;0.80;;;28.60;1.00;;;;;;5056073;28;20314;-68
2024/04/06 11:27:48;;;;;;;1.55;1.00;;;28.50;1.00;;;;;;5056271;28;20253;-68
2024/04/06 11:30:16;;;;;;;2.47;1.13;;;28.90;1.00;;;;;;5056203;28;20239;-67
2024/04/06 11:32:44;;;;;;;2.05;1.20;;;29.10;1.00;;;;;;5056309;28;20634;-68
2024/04/06 11:35:11;;;;;;;1.30;1.20;;;29.10;1.00;;;;;;5055715;28;20261;-68
2024/04/06 11:37:40;;;;;;;1.15;1.02;;;29.30;1.00;;;;;;5055614;28;20253;-68
2024/04/06 11:40:08;;;;;;;1.60;1.05;;;30.00;1.00;;;;;;5055804;28;20231;-68
2024/04/06 11:42:36;;;;;;;2.38;1.00;;;30.50;1.00;;;;;;5055761;28;20211;-68
2024/04/06 11:45:02;;;;;;;2.47;0.73;;;31.00;1.00;;;;;;5055640;28;20250;-68
2024/04/06 11:47:29;;;;;;;1.10;0.90;;;30.90;1.00;;;;;;5055742;28;20579;-69
2024/04/06 11:49:56;;;;;;;1.77;0.90;;;31.30;1.00;;;;;;5055759;28;20314;-69
2024/04/06 11:52:23;;;;;;;1.77;0.80;;;31.60;1.00;;;;;;5055819;28;20291;-69
2024/04/06 11:54:49;;;;;;;1.30;0.75;;;31.50;1.00;;;;;;5056019;28;20208;-68
2024/04/06 11:57:18;;;;;;;1.92;0.95;;;31.20;1.00;;;;;;5055663;28;20204;-69
2024/04/06 11:59:43;;;;;;;1.52;0.63;;;31.20;1.00;;;;;;5055827;28;20231;-69
2024/04/06 12:02:10;;;;;;;0.45;0.45;;;30.70;1.00;;;;;;5055382;28;20208;-69
2024/04/06 12:04:36;;;;;;;2.20;0.88;;;30.70;1.00;;;;;;5056085;28;20218;-69
2024/04/06 12:07:05;;;;;;;1.30;0.60;;;30.80;1.00;;;;;;5055617;28;20211;-69
2024/04/06 12:09:31;;;;;;;0.55;0.50;;;29.70;1.00;;;;;;5055057;28;20742;-68
2024/04/06 12:11:58;;;;;;;1.23;0.80;;;29.60;1.00;;;;;;5054656;28;20203;-69
2024/04/06 12:14:26;;;;;;;0.85;0.75;;;30.90;1.00;;;;;;5055312;28;20212;-69
2024/04/06 12:16:54;;;;;;;0.80;0.80;;;30.90;1.00;;;;;;5055010;28;20252;-69
2024/04/06 12:19:22;;;;;;;0.73;0.73;;;31.30;1.00;;;;;;5054814;28;20211;-69
2024/04/06 12:21:50;;;;;;;2.28;0.80;;;32.00;1.00;;;;;;5055234;28;20207;-70
2024/04/06 12:24:17;;;;;;;0.70;0.70;;;31.90;1.00;;;;;;5055032;28;20242;-71
2024/04/06 12:26:45;;;;;;;1.80;0.80;;;31.30;1.00;;;;;;5055303;28;20692;-70
2024/04/06 12:29:10;;;;;;;0.82;0.80;;;31.60;1.00;;;;;;5055082;28;20262;-70
2024/04/06 12:31:39;;;;;;;0.88;0.88;;;32.40;1.00;;;;;;5054977;28;20231;-70
2024/04/06 12:34:04;;;;;;;1.42;0.60;;;33.60;1.00;;;;;;5054654;28;20684;-70
2024/04/06 12:36:31;;;;;;;1.00;0.77;;;33.40;1.00;;;;;;5054992;28;20283;-71
2024/04/06 12:39:05;;;;;;;0.85;0.60;;;33.60;1.00;;;;;;5054863;28;20209;-71
2024/04/06 12:41:32;;;;;;;1.15;0.70;;;33.70;1.00;;;;;;5054759;28;20245;-71
2024/04/06 12:43:58;;;;;;;2.05;0.90;;;33.40;1.00;;;;;;5054899;28;20233;-70
2024/04/06 12:46:25;;;;;;;1.10;0.85;;;33.00;1.00;;;;;;5055104;28;20322;-71
2024/04/06 12:48:52;;;;;;;2.28;0.60;;;33.20;1.00;;;;;;5054836;28;20215;-71